Time;durP1;ratioP1;P1;durP2;ratioP2;P2;SDS_P1;SDS_P2;PMS_P1;PMS_P2;Temp;Humidity;BMP_temperature;BMP_pressure;BME280_temperature;BME280_humidity;BME280_pressure;Samples;Min_cycle;Max_cycle;Signal;HPM_P1;HPM_P2
2023/06/18 00:00:05;;;;;;;15.05;10.23;;;;;;;;;;5014641;28;20049;-69
2023/06/18 00:02:33;;;;;;;13.40;9.57;;;;;;;;;;5017442;28;20072;-69
2023/06/18 00:05:01;;;;;;;14.13;10.20;;;;;;;;;;5016382;28;20406;-68
2023/06/18 00:07:30;;;;;;;14.90;10.98;;;;;;;;;;5013696;28;20045;-68
2023/06/18 00:09:58;;;;;;;16.10;11.15;;;;;;;;;;5019790;28;20037;-68
2023/06/18 00:12:26;;;;;;;15.23;11.13;;;;;;;;;;5015392;28;20049;-69
2023/06/18 00:14:54;;;;;;;15.57;10.33;;;;;;;;;;5015724;28;20063;-69
2023/06/18 00:17:22;;;;;;;14.93;10.43;;;;;;;;;;5006441;28;20037;-68
2023/06/18 00:19:51;;;;;;;14.30;10.45;;;;;;;;;;5016935;28;20080;-69
2023/06/18 00:22:21;;;;;;;15.63;10.27;;;;;;;;;;5006247;28;20033;-69
2023/06/18 00:24:52;;;;;;;16.65;10.98;;;;;;;;;;5019379;28;20044;-68
2023/06/18 00:27:20;;;;;;;16.70;11.23;;;;;;;;;;5009856;28;20049;-68
2023/06/18 00:29:48;;;;;;;15.65;11.02;;;;;;;;;;5022289;28;20688;-68
2023/06/18 00:32:16;;;;;;;16.00;10.85;;;;;;;;;;5018063;28;20044;-68
2023/06/18 00:34:46;;;;;;;14.18;10.20;;;;;;;;;;5022110;28;21355;-68
2023/06/18 00:37:15;;;;;;;16.55;11.23;;;;;;;;;;5011796;28;20457;-69
2023/06/18 00:39:43;;;;;;;16.03;11.00;;;;;;;;;;5016098;28;20053;-68
2023/06/18 00:42:12;;;;;;;14.52;10.60;;;;;;;;;;5015292;28;20055;-68
2023/06/18 00:44:41;;;;;;;18.70;11.38;;;;;;;;;;5019652;28;20392;-68
2023/06/18 00:47:11;;;;;;;14.88;10.80;;;;;;;;;;5009741;28;20496;-68
2023/06/18 00:49:41;;;;;;;14.85;11.18;;;;;;;;;;5014241;28;20046;-72
2023/06/18 00:52:12;;;;;;;15.97;11.03;;;;;;;;;;5008134;28;20041;-70
2023/06/18 00:54:40;;;;;;;14.55;11.02;;;;;;;;;;5020907;28;20048;-69
2023/06/18 00:57:09;;;;;;;14.63;10.18;;;;;;;;;;5007343;28;20060;-70
2023/06/18 00:59:42;;;;;;;16.30;10.60;;;;;;;;;;5017471;28;20910;-70
2023/06/18 01:02:10;;;;;;;15.32;10.32;;;;;;;;;;5016182;28;20048;-69
2023/06/18 01:04:39;;;;;;;16.07;11.17;;;;;;;;;;5015430;28;20673;-69
2023/06/18 01:07:12;;;;;;;16.02;10.95;;;;;;;;;;5016800;28;20499;-69
2023/06/18 01:09:44;;;;;;;13.98;10.82;;;;;;;;;;5013247;28;20487;-69
2023/06/18 01:12:13;;;;;;;18.75;11.02;;;;;;;;;;5000746;28;20037;-64
2023/06/18 01:14:50;;;;;;;14.90;11.80;;;;;;;;;;5015799;28;20236;-70
2023/06/18 01:17:19;;;;;;;14.57;10.60;;;;;;;;;;5023971;28;20041;-70
2023/06/18 01:19:49;;;;;;;14.68;10.80;;;;;;;;;;5015971;28;20584;-69
2023/06/18 01:22:21;;;;;;;15.05;11.40;;;;;;;;;;5025893;28;20285;-70
2023/06/18 01:24:50;;;;;;;15.63;11.68;;;;;;;;;;5018795;28;20037;-70
2023/06/18 01:27:21;;;;;;;17.33;11.80;;;;;;;;;;5019657;28;20041;-70
2023/06/18 01:29:51;;;;;;;17.17;12.53;;;;;;;;;;5021959;28;20241;-70
2023/06/18 01:32:21;;;;;;;16.48;12.80;;;;;;;;;;5017392;28;20068;-69
2023/06/18 01:34:53;;;;;;;18.75;12.70;;;;;;;;;;5013393;28;20044;-70
2023/06/18 01:37:33;;;;;;;17.15;12.75;;;;;;;;;;5001374;28;20144;-69
2023/06/18 01:40:05;;;;;;;18.23;12.45;;;;;;;;;;5003173;28;20068;-70
2023/06/18 01:42:35;;;;;;;16.93;12.13;;;;;;;;;;5001191;28;20056;-69
2023/06/18 01:45:08;;;;;;;18.92;12.38;;;;;;;;;;5022094;28;20072;-69
2023/06/18 01:47:36;;;;;;;17.92;12.10;;;;;;;;;;5020435;28;20434;-70
2023/06/18 01:50:05;;;;;;;15.25;11.25;;;;;;;;;;5014267;28;20112;-69
2023/06/18 01:52:35;;;;;;;15.45;11.13;;;;;;;;;;5004123;28;20034;-69
2023/06/18 01:55:05;;;;;;;14.80;11.60;;;;;;;;;;5021195;28;20048;-69
2023/06/18 01:57:33;;;;;;;16.80;11.55;;;;;;;;;;5022233;28;20037;-69
2023/06/18 02:00:04;;;;;;;17.73;12.20;;;;;;;;;;5010410;28;20037;-69
2023/06/18 02:02:33;;;;;;;17.00;11.60;;;;;;;;;;5001774;28;20107;-62
2023/06/18 02:05:02;;;;;;;17.45;11.77;;;;;;;;;;5019363;28;20044;-68
2023/06/18 02:07:29;;;;;;;15.07;11.33;;;;;;;;;;5013131;28;20057;-66
2023/06/18 02:09:57;;;;;;;18.48;12.43;;;;;;;;;;5012165;28;20049;-67
2023/06/18 02:12:25;;;;;;;18.63;13.65;;;;;;;;;;5027383;28;20049;-67
2023/06/18 02:14:52;;;;;;;18.42;12.85;;;;;;;;;;4998044;28;20041;-67
2023/06/18 02:17:20;;;;;;;17.88;13.02;;;;;;;;;;5030781;28;20032;-66
2023/06/18 02:19:49;;;;;;;16.37;12.03;;;;;;;;;;5011990;28;20037;-67
2023/06/18 02:22:17;;;;;;;17.27;11.55;;;;;;;;;;5009575;28;20040;-68
2023/06/18 02:24:45;;;;;;;16.75;12.68;;;;;;;;;;5016432;28;20059;-69
2023/06/18 02:27:13;;;;;;;19.33;12.50;;;;;;;;;;5018229;28;20045;-68
2023/06/18 02:29:42;;;;;;;20.23;13.35;;;;;;;;;;5020859;28;20033;-69
2023/06/18 02:32:09;;;;;;;20.03;14.67;;;;;;;;;;5019190;28;20040;-68
2023/06/18 02:34:37;;;;;;;18.50;13.77;;;;;;;;;;5015509;28;20526;-64
2023/06/18 02:37:08;;;;;;;18.85;14.25;;;;;;;;;;5016403;28;20505;-69
2023/06/18 02:39:36;;;;;;;19.95;12.82;;;;;;;;;;5019884;28;20136;-70
2023/06/18 02:42:04;;;;;;;16.67;13.52;;;;;;;;;;5020613;28;20040;-69
2023/06/18 02:44:34;;;;;;;19.47;13.70;;;;;;;;;;5018299;28;20048;-69
2023/06/18 02:47:02;;;;;;;21.55;13.90;;;;;;;;;;5012387;28;20045;-69
2023/06/18 02:49:31;;;;;;;17.90;13.40;;;;;;;;;;5013397;28;20041;-69
2023/06/18 02:51:59;;;;;;;17.40;13.82;;;;;;;;;;5016264;28;20052;-69
2023/06/18 02:54:28;;;;;;;20.63;14.02;;;;;;;;;;5012336;28;20048;-70
2023/06/18 02:56:56;;;;;;;18.73;13.70;;;;;;;;;;5022316;28;20037;-69
2023/06/18 02:59:24;;;;;;;23.27;13.85;;;;;;;;;;5008296;28;20261;-69
2023/06/18 03:01:53;;;;;;;20.92;14.50;;;;;;;;;;5024012;28;20051;-63
2023/06/18 03:04:21;;;;;;;22.30;14.50;;;;;;;;;;5008980;28;20036;-69
2023/06/18 03:06:48;;;;;;;18.38;13.82;;;;;;;;;;5025358;28;20116;-69
2023/06/18 03:09:17;;;;;;;21.80;13.87;;;;;;;;;;5025511;28;20457;-70
2023/06/18 03:11:46;;;;;;;19.83;13.70;;;;;;;;;;5018268;28;20036;-69
2023/06/18 03:14:14;;;;;;;19.00;14.55;;;;;;;;;;4983406;28;20068;-69
2023/06/18 03:16:41;;;;;;;18.05;13.23;;;;;;;;;;5014064;28;20043;-69
2023/06/18 03:19:09;;;;;;;22.15;15.05;;;;;;;;;;5020545;28;20056;-69
2023/06/18 03:21:37;;;;;;;19.20;13.60;;;;;;;;;;5008347;28;20240;-69
2023/06/18 03:24:05;;;;;;;20.05;14.65;;;;;;;;;;5019204;28;20041;-69
2023/06/18 03:26:36;;;;;;;18.52;12.75;;;;;;;;;;5021775;28;20124;-69
2023/06/18 03:29:05;;;;;;;19.52;14.20;;;;;;;;;;5010641;28;20076;-68
2023/06/18 03:31:33;;;;;;;18.65;13.73;;;;;;;;;;4967274;28;20051;-69
2023/06/18 03:34:02;;;;;;;19.43;13.37;;;;;;;;;;5024620;28;20522;-68
2023/06/18 03:36:29;;;;;;;19.83;14.02;;;;;;;;;;5016157;28;20665;-69
2023/06/18 03:38:58;;;;;;;19.80;14.05;;;;;;;;;;5016017;28;20822;-68
2023/06/18 03:41:27;;;;;;;18.48;13.75;;;;;;;;;;5013204;28;20053;-68
2023/06/18 03:43:55;;;;;;;19.25;13.52;;;;;;;;;;5027821;28;20052;-68
2023/06/18 03:46:25;;;;;;;18.10;13.30;;;;;;;;;;5026768;28;20456;-68
2023/06/18 03:48:53;;;;;;;18.85;12.98;;;;;;;;;;5030224;28;20499;-67
2023/06/18 03:51:20;;;;;;;18.90;13.45;;;;;;;;;;5012360;28;20045;-67
2023/06/18 03:53:48;;;;;;;17.75;10.77;;;;;;;;;;5011321;28;20039;-67
2023/06/18 03:56:16;;;;;;;20.00;12.18;;;;;;;;;;5013643;28;20119;-67
2023/06/18 03:58:44;;;;;;;18.23;12.30;;;;;;;;;;5022668;28;20045;-67
2023/06/18 04:01:12;;;;;;;17.45;12.63;;;;;;;;;;5013294;28;20036;-66
2023/06/18 04:03:41;;;;;;;19.48;13.50;;;;;;;;;;5017117;28;20480;-67
2023/06/18 04:06:09;;;;;;;15.10;12.18;;;;;;;;;;5020941;28;20045;-68
2023/06/18 04:08:37;;;;;;;16.33;12.30;;;;;;;;;;5018789;28;20041;-67
2023/06/18 04:11:05;;;;;;;18.37;12.23;;;;;;;;;;5016310;28;20036;-68
2023/06/18 04:13:32;;;;;;;18.85;12.40;;;;;;;;;;5021320;28;20075;-67
2023/06/18 04:16:00;;;;;;;17.98;12.57;;;;;;;;;;5018960;28;20079;-68
2023/06/18 04:18:29;;;;;;;15.90;12.23;;;;;;;;;;5029394;28;20033;-68
2023/06/18 04:20:58;;;;;;;19.20;13.30;;;;;;;;;;5016772;28;20499;-70
2023/06/18 04:23:27;;;;;;;22.40;15.53;;;;;;;;;;5017321;28;20045;-70
2023/06/18 04:25:55;;;;;;;21.85;14.80;;;;;;;;;;5012398;28;20419;-70
2023/06/18 04:28:23;;;;;;;23.30;15.57;;;;;;;;;;5026304;28;20363;-70
2023/06/18 04:30:51;;;;;;;21.00;14.10;;;;;;;;;;5017426;28;20037;-70
2023/06/18 04:33:18;;;;;;;18.73;12.88;;;;;;;;;;5016973;28;20041;-70
2023/06/18 04:35:46;;;;;;;21.90;14.93;;;;;;;;;;5010960;28;20057;-70
2023/06/18 04:38:15;;;;;;;21.95;15.27;;;;;;;;;;5019610;28;20048;-70
2023/06/18 04:40:43;;;;;;;22.73;15.25;;;;;;;;;;5018867;28;20144;-70
2023/06/18 04:43:10;;;;;;;18.27;13.32;;;;;;;;;;5020745;28;20037;-69
2023/06/18 04:45:38;;;;;;;20.17;14.75;;;;;;;;;;5017632;28;20041;-70
2023/06/18 04:48:08;;;;;;;18.40;13.97;;;;;;;;;;5017587;28;20052;-69
2023/06/18 04:50:36;;;;;;;20.20;14.40;;;;;;;;;;5026139;28;20060;-70
2023/06/18 04:53:04;;;;;;;21.58;14.98;;;;;;;;;;5008009;28;21092;-69
2023/06/18 04:55:33;;;;;;;22.45;14.65;;;;;;;;;;5025270;28;20573;-70
2023/06/18 04:58:01;;;;;;;19.08;14.13;;;;;;;;;;5017226;28;20049;-70
2023/06/18 05:00:29;;;;;;;20.80;14.60;;;;;;;;;;5038264;28;20498;-69
2023/06/18 05:02:58;;;;;;;19.80;13.90;;;;;;;;;;5014646;28;20059;-69
2023/06/18 05:05:26;;;;;;;20.15;15.05;;;;;;;;;;5014819;28;20049;-69
2023/06/18 05:07:54;;;;;;;19.58;13.65;;;;;;;;;;5018504;28;20041;-70
2023/06/18 05:10:22;;;;;;;20.95;14.15;;;;;;;;;;5022712;28;20048;-69
2023/06/18 05:12:52;;;;;;;22.13;14.83;;;;;;;;;;5017414;28;20037;-69
2023/06/18 05:15:23;;;;;;;19.13;14.38;;;;;;;;;;5022215;28;20033;-70
2023/06/18 05:17:51;;;;;;;17.77;13.40;;;;;;;;;;5015309;28;20896;-70
2023/06/18 05:20:19;;;;;;;19.50;13.88;;;;;;;;;;5012680;28;20060;-69
2023/06/18 05:22:47;;;;;;;22.35;14.02;;;;;;;;;;5018465;28;20037;-69
2023/06/18 05:25:15;;;;;;;21.10;13.97;;;;;;;;;;5028092;28;20039;-70
2023/06/18 05:27:43;;;;;;;18.25;13.23;;;;;;;;;;5004837;28;20431;-70
2023/06/18 05:30:17;;;;;;;19.88;14.10;;;;;;;;;;5027316;28;20128;-70
2023/06/18 05:32:44;;;;;;;21.33;13.48;;;;;;;;;;5015268;28;20479;-70
2023/06/18 05:35:13;;;;;;;18.75;13.82;;;;;;;;;;5012782;28;20045;-70
2023/06/18 05:37:41;;;;;;;20.80;14.27;;;;;;;;;;5010499;28;20041;-70
2023/06/18 05:40:09;;;;;;;20.20;14.02;;;;;;;;;;5026169;28;20136;-69
2023/06/18 05:42:38;;;;;;;18.65;13.05;;;;;;;;;;5013625;28;20801;-69
2023/06/18 05:45:07;;;;;;;22.08;14.23;;;;;;;;;;5018650;28;20091;-69
2023/06/18 05:47:36;;;;;;;21.80;14.73;;;;;;;;;;5007772;28;20033;-70
2023/06/18 05:50:04;;;;;;;17.10;12.90;;;;;;;;;;5027118;28;20517;-69
2023/06/18 05:52:31;;;;;;;17.52;13.00;;;;;;;;;;5006439;28;20435;-60
2023/06/18 05:54:59;;;;;;;19.30;14.27;;;;;;;;;;5013978;28;20045;-70
2023/06/18 05:57:27;;;;;;;18.02;13.48;;;;;;;;;;5003684;28;20125;-69
2023/06/18 05:59:55;;;;;;;18.48;13.02;;;;;;;;;;5022374;28;20041;-69
2023/06/18 06:02:23;;;;;;;20.57;13.53;;;;;;;;;;5020098;28;20528;-69
2023/06/18 06:04:53;;;;;;;19.58;13.20;;;;;;;;;;5024951;28;20049;-69
2023/06/18 06:07:21;;;;;;;19.65;12.93;;;;;;;;;;5018388;28;20037;-70
2023/06/18 06:09:50;;;;;;;19.40;13.50;;;;;;;;;;5019041;28;20045;-70
2023/06/18 06:12:18;;;;;;;19.02;13.68;;;;;;;;;;5013520;28;20083;-69
2023/06/18 06:14:46;;;;;;;19.63;13.57;;;;;;;;;;5010223;28;20045;-70
2023/06/18 06:17:13;;;;;;;20.20;14.23;;;;;;;;;;5019221;28;20066;-70
2023/06/18 06:19:41;;;;;;;20.73;14.18;;;;;;;;;;5015909;28;20658;-70
2023/06/18 06:22:10;;;;;;;19.70;13.90;;;;;;;;;;5013090;28;20040;-70
2023/06/18 06:24:38;;;;;;;18.70;13.88;;;;;;;;;;5002383;28;20044;-70
2023/06/18 06:27:06;;;;;;;21.03;14.10;;;;;;;;;;5027277;28;20037;-69
2023/06/18 06:29:34;;;;;;;23.90;15.38;;;;;;;;;;5006648;28;20132;-69
2023/06/18 06:32:01;;;;;;;22.20;14.60;;;;;;;;;;5030308;28;20116;-69
2023/06/18 06:34:33;;;;;;;19.83;14.15;;;;;;;;;;5016728;28;20490;-68
2023/06/18 06:37:01;;;;;;;24.05;14.40;;;;;;;;;;5004820;28;20052;-71
2023/06/18 06:39:31;;;;;;;21.10;15.00;;;;;;;;;;5023166;28;20119;-70
2023/06/18 06:41:58;;;;;;;22.60;15.85;;;;;;;;;;5033817;28;20131;-70
2023/06/18 06:44:26;;;;;;;21.05;15.18;;;;;;;;;;5012119;28;20748;-70
2023/06/18 06:46:54;;;;;;;23.92;17.42;;;;;;;;;;5021405;28;20124;-69
2023/06/18 06:49:22;;;;;;;25.42;16.25;;;;;;;;;;5013251;28;20060;-70
2023/06/18 06:51:49;;;;;;;22.80;16.47;;;;;;;;;;5020991;28;20555;-70
2023/06/18 06:54:17;;;;;;;24.73;16.95;;;;;;;;;;5008795;28;20134;-64
2023/06/18 06:56:48;;;;;;;24.35;16.95;;;;;;;;;;5024879;28;20052;-70
2023/06/18 06:59:17;;;;;;;24.70;16.02;;;;;;;;;;5014190;28;20128;-70
2023/06/18 07:01:45;;;;;;;24.85;16.77;;;;;;;;;;5007856;28;20506;-70
2023/06/18 07:04:12;;;;;;;24.63;16.60;;;;;;;;;;5020517;28;20128;-70
2023/06/18 07:06:40;;;;;;;23.85;16.67;;;;;;;;;;5008092;28;20037;-70
2023/06/18 07:09:08;;;;;;;21.67;15.30;;;;;;;;;;5021205;28;20037;-70
2023/06/18 07:11:37;;;;;;;24.48;16.27;;;;;;;;;;5005946;28;20060;-68
2023/06/18 07:14:06;;;;;;;25.65;15.95;;;;;;;;;;5006282;28;20519;-70
2023/06/18 07:16:34;;;;;;;20.50;14.60;;;;;;;;;;5012602;28;20052;-67
2023/06/18 07:19:03;;;;;;;21.05;14.70;;;;;;;;;;5009364;28;21313;-68
2023/06/18 07:21:31;;;;;;;22.13;14.40;;;;;;;;;;5018962;28;20041;-67
2023/06/18 07:23:59;;;;;;;20.60;14.57;;;;;;;;;;5007400;28;20053;-69
2023/06/18 07:26:27;;;;;;;23.08;16.02;;;;;;;;;;5019118;28;20037;-68
2023/06/18 07:28:55;;;;;;;22.73;15.83;;;;;;;;;;4998905;28;21142;-67
2023/06/18 07:31:24;;;;;;;20.88;14.55;;;;;;;;;;5010887;28;20419;-69
2023/06/18 07:34:09;;;;;;;21.45;14.93;;;;;;;;;;5016137;28;20037;-68
2023/06/18 07:36:38;;;;;;;21.27;15.10;;;;;;;;;;5016387;28;20041;-68
2023/06/18 07:39:06;;;;;;;20.10;14.57;;;;;;;;;;5026787;28;20047;-68
2023/06/18 07:41:33;;;;;;;21.73;14.30;;;;;;;;;;5015914;28;20049;-68
2023/06/18 07:44:01;;;;;;;25.05;15.45;;;;;;;;;;5015562;28;20045;-68
2023/06/18 07:46:33;;;;;;;24.38;15.75;;;;;;;;;;5010717;28;20072;-68
2023/06/18 07:49:00;;;;;;;25.85;17.90;;;;;;;;;;5018621;28;20116;-67
2023/06/18 07:51:29;;;;;;;28.55;19.38;;;;;;;;;;5006916;28;20112;-68
2023/06/18 07:53:56;;;;;;;24.70;17.70;;;;;;;;;;5024457;28;20041;-68
2023/06/18 07:56:26;;;;;;;25.27;17.05;;;;;;;;;;5011634;28;20487;-68
2023/06/18 07:58:57;;;;;;;25.08;16.30;;;;;;;;;;5027095;28;20079;-68
2023/06/18 08:01:25;;;;;;;25.17;16.40;;;;;;;;;;5015203;28;20047;-68
2023/06/18 08:03:54;;;;;;;20.13;14.88;;;;;;;;;;5021565;28;20073;-68
2023/06/18 08:06:22;;;;;;;25.33;16.53;;;;;;;;;;5009321;28;20038;-68
2023/06/18 08:08:49;;;;;;;25.15;17.08;;;;;;;;;;5013572;28;20065;-68
2023/06/18 08:11:18;;;;;;;29.65;18.17;;;;;;;;;;5026779;28;20041;-68
2023/06/18 08:13:46;;;;;;;22.52;16.25;;;;;;;;;;5017843;28;20060;-69
2023/06/18 08:16:14;;;;;;;24.67;17.05;;;;;;;;;;5014776;28;20162;-68
2023/06/18 08:18:42;;;;;;;25.63;17.50;;;;;;;;;;5013497;28;20047;-68
2023/06/18 08:21:11;;;;;;;25.17;16.80;;;;;;;;;;5012635;28;20391;-68
2023/06/18 08:23:39;;;;;;;23.13;16.45;;;;;;;;;;5022213;28;20503;-69
2023/06/18 08:26:07;;;;;;;23.80;16.77;;;;;;;;;;5008016;28;20044;-69
2023/06/18 08:28:34;;;;;;;23.58;17.00;;;;;;;;;;5023232;28;20127;-69
2023/06/18 08:31:03;;;;;;;22.83;16.77;;;;;;;;;;5001988;28;20037;-69
2023/06/18 08:33:30;;;;;;;24.02;16.67;;;;;;;;;;5020773;28;20613;-69
2023/06/18 08:35:59;;;;;;;23.67;16.98;;;;;;;;;;5015565;28;20052;-68
2023/06/18 08:38:28;;;;;;;22.67;14.90;;;;;;;;;;5008285;28;20048;-69
2023/06/18 08:41:01;;;;;;;20.52;15.50;;;;;;;;;;5014435;28;20435;-69
2023/06/18 08:43:32;;;;;;;22.17;15.10;;;;;;;;;;5027232;28;20125;-69
2023/06/18 08:46:03;;;;;;;22.90;16.23;;;;;;;;;;5004651;28;20045;-69
2023/06/18 08:48:33;;;;;;;24.40;15.85;;;;;;;;;;5022745;28;20045;-69
2023/06/18 08:51:04;;;;;;;22.52;15.57;;;;;;;;;;5011627;28;20041;-68
2023/06/18 08:53:39;;;;;;;23.05;15.60;;;;;;;;;;5024513;28;20156;-69
2023/06/18 08:56:09;;;;;;;19.57;14.37;;;;;;;;;;5004306;28;20033;-68
2023/06/18 08:58:40;;;;;;;21.42;14.90;;;;;;;;;;5021130;28;20056;-69
2023/06/18 09:01:08;;;;;;;23.00;16.20;;;;;;;;;;5010507;28;20029;-67
2023/06/18 09:03:37;;;;;;;20.75;15.32;;;;;;;;;;5012902;28;20025;-65
2023/06/18 09:06:05;;;;;;;19.92;13.32;;;;;;;;;;5004892;28;20051;-65
2023/06/18 09:08:33;;;;;;;20.83;14.00;;;;;;;;;;5013889;28;20507;-65
2023/06/18 09:11:03;;;;;;;17.40;12.27;;;;;;;;;;5003012;28;20036;-65
2023/06/18 09:13:31;;;;;;;18.58;11.10;;;;;;;;;;5026088;28;20045;-67
2023/06/18 09:15:59;;;;;;;17.25;11.02;;;;;;;;;;5021502;28;20044;-67
2023/06/18 09:18:27;;;;;;;16.88;11.75;;;;;;;;;;5019303;28;20045;-66
2023/06/18 09:20:56;;;;;;;17.00;11.63;;;;;;;;;;5014944;28;20485;-66
2023/06/18 09:23:24;;;;;;;16.70;10.15;;;;;;;;;;5016737;28;20049;-67
2023/06/18 09:25:52;;;;;;;15.93;10.52;;;;;;;;;;4995815;28;20752;-59
2023/06/18 09:28:22;;;;;;;15.77;11.85;;;;;;;;;;5030590;28;20041;-66
2023/06/18 09:30:52;;;;;;;15.85;11.43;;;;;;;;;;5003655;28;20052;-66
2023/06/18 09:33:27;;;;;;;17.70;11.67;;;;;;;;;;5027648;28;20067;-67
2023/06/18 09:35:58;;;;;;;18.73;11.80;;;;;;;;;;5007402;28;20037;-66
2023/06/18 09:38:32;;;;;;;17.88;12.73;;;;;;;;;;5025819;28;20037;-66
2023/06/18 09:41:00;;;;;;;15.80;11.77;;;;;;;;;;5016339;28;20693;-66
2023/06/18 09:43:35;;;;;;;15.82;10.93;;;;;;;;;;5028710;28;20033;-66
2023/06/18 09:46:06;;;;;;;14.83;11.07;;;;;;;;;;5008024;28;20072;-67
2023/06/18 09:48:37;;;;;;;15.85;11.35;;;;;;;;;;5027721;28;20044;-66
2023/06/18 09:51:05;;;;;;;15.15;9.85;;;;;;;;;;5017065;28;20041;-67
2023/06/18 09:53:35;;;;;;;10.77;6.90;;;;;;;;;;5011404;28;20491;-65
2023/06/18 09:56:10;;;;;;;14.55;8.18;;;;;;;;;;5028650;28;20037;-66
2023/06/18 09:58:43;;;;;;;14.17;9.40;;;;;;;;;;5003125;28;20033;-66
2023/06/18 10:01:11;;;;;;;14.45;9.55;;;;;;;;;;5016743;28;20056;-67
2023/06/18 10:03:40;;;;;;;10.40;6.50;;;;;;;;;;5014289;28;20041;-66
2023/06/18 10:06:16;;;;;;;11.60;8.52;;;;;;;;;;5022806;28;20086;-66
2023/06/18 10:08:45;;;;;;;15.13;9.35;;;;;;;;;;5008913;28;20083;-67
2023/06/18 10:11:15;;;;;;;12.70;9.47;;;;;;;;;;4994050;28;20411;-66
2023/06/18 10:13:49;;;;;;;10.07;7.15;;;;;;;;;;4996806;28;20056;-67
2023/06/18 10:16:20;;;;;;;13.13;9.13;;;;;;;;;;4999907;28;20422;-68
2023/06/18 10:18:55;;;;;;;16.77;8.88;;;;;;;;;;4997183;28;20056;-68
2023/06/18 10:21:24;;;;;;;14.38;9.45;;;;;;;;;;5005128;28;20328;-67
2023/06/18 10:24:00;;;;;;;12.60;9.00;;;;;;;;;;4985791;28;20127;-60
2023/06/18 10:26:29;;;;;;;13.40;8.65;;;;;;;;;;4995811;28;20049;-68
2023/06/18 10:28:59;;;;;;;10.77;7.70;;;;;;;;;;4985430;28;20044;-68
2023/06/18 10:31:27;;;;;;;12.35;9.45;;;;;;;;;;4996891;28;20048;-68
2023/06/18 10:33:55;;;;;;;13.05;8.00;;;;;;;;;;4989061;28;20528;-68
2023/06/18 10:36:23;;;;;;;13.30;8.60;;;;;;;;;;5015699;28;20222;-68
2023/06/18 10:38:51;;;;;;;13.00;8.07;;;;;;;;;;5014922;28;20059;-68
2023/06/18 10:41:20;;;;;;;13.98;9.25;;;;;;;;;;5017280;28;20696;-68
2023/06/18 10:43:51;;;;;;;12.93;8.73;;;;;;;;;;5018111;28;20036;-66
2023/06/18 10:46:22;;;;;;;7.93;5.68;;;;;;;;;;5021055;28;20099;-66
2023/06/18 10:49:09;;;;;;;9.73;5.27;;;;;;;;;;5021457;28;20037;-66
2023/06/18 10:51:36;;;;;;;9.23;5.65;;;;;;;;;;5017953;28;20037;-66
2023/06/18 10:54:19;;;;;;;9.38;6.35;;;;;;;;;;4993782;28;20158;-68
2023/06/18 10:56:51;;;;;;;10.55;6.72;;;;;;;;;;5016551;28;20045;-68
2023/06/18 10:59:35;;;;;;;11.05;7.38;;;;;;;;;;5009612;28;20061;-68
2023/06/18 11:02:04;;;;;;;14.30;9.07;;;;;;;;;;5029328;28;20542;-68
2023/06/18 11:04:33;;;;;;;10.73;7.90;;;;;;;;;;5012012;28;20045;-60
2023/06/18 11:07:14;;;;;;;11.13;7.70;;;;;;;;;;5012885;28;20034;-68
2023/06/18 11:09:51;;;;;;;11.13;8.05;;;;;;;;;;5005628;28;20261;-69
2023/06/18 11:12:21;;;;;;;10.85;7.38;;;;;;;;;;5007735;28;20053;-68
2023/06/18 11:15:04;;;;;;;11.13;8.60;;;;;;;;;;5013096;28;20132;-67
2023/06/18 11:17:33;;;;;;;14.73;9.60;;;;;;;;;;5014629;28;20041;-67
2023/06/18 11:20:03;;;;;;;12.85;10.00;;;;;;;;;;5026023;28;20068;-67
2023/06/18 11:22:31;;;;;;;11.63;8.68;;;;;;;;;;5004172;28;20037;-68
2023/06/18 11:24:59;;;;;;;13.45;9.65;;;;;;;;;;5025560;28;20036;-68
2023/06/18 11:27:27;;;;;;;12.40;8.67;;;;;;;;;;5003134;28;20033;-68
2023/06/18 11:29:55;;;;;;;13.38;9.43;;;;;;;;;;5024643;28;20394;-68
2023/06/18 11:32:24;;;;;;;12.50;8.65;;;;;;;;;;5011351;28;20811;-68
2023/06/18 11:34:54;;;;;;;10.27;6.10;;;;;;;;;;5018352;28;20116;-60
2023/06/18 11:37:24;;;;;;;10.98;7.97;;;;;;;;;;5014635;28;20033;-68
2023/06/18 11:39:52;;;;;;;7.93;4.80;;;;;;;;;;5014610;28;20498;-67
2023/06/18 11:42:20;;;;;;;13.15;7.60;;;;;;;;;;5015350;28;20048;-69
2023/06/18 11:44:48;;;;;;;11.63;8.20;;;;;;;;;;5003659;28;20037;-69
2023/06/18 11:47:16;;;;;;;12.32;9.43;;;;;;;;;;4998306;28;20048;-69
2023/06/18 11:49:44;;;;;;;11.48;8.27;;;;;;;;;;5009410;28;20494;-69
2023/06/18 11:52:15;;;;;;;9.23;6.43;;;;;;;;;;5010946;28;20542;-67
2023/06/18 11:54:43;;;;;;;12.15;8.18;;;;;;;;;;5015573;28;20045;-68
2023/06/18 11:57:12;;;;;;;14.23;8.25;;;;;;;;;;5021104;28;20044;-67
2023/06/18 11:59:40;;;;;;;12.45;8.70;;;;;;;;;;5006573;28;20042;-68
2023/06/18 12:02:11;;;;;;;7.22;4.55;;;;;;;;;;5004980;28;20046;-66
2023/06/18 12:04:39;;;;;;;11.10;7.20;;;;;;;;;;5019551;28;20040;-66
2023/06/18 12:07:07;;;;;;;9.90;6.32;;;;;;;;;;5008514;28;20041;-67
2023/06/18 12:09:36;;;;;;;9.07;6.25;;;;;;;;;;5010717;28;20045;-66
2023/06/18 12:12:10;;;;;;;7.80;4.78;;;;;;;;;;5021000;28;20120;-67
2023/06/18 12:14:39;;;;;;;8.15;5.38;;;;;;;;;;5007622;28;20115;-67
2023/06/18 12:17:10;;;;;;;6.33;4.00;;;;;;;;;;5020697;28;20045;-67
2023/06/18 12:19:41;;;;;;;8.27;5.90;;;;;;;;;;5009820;28;20865;-67
2023/06/18 12:22:09;;;;;;;10.40;6.60;;;;;;;;;;5012713;28;20049;-69
2023/06/18 12:24:38;;;;;;;9.32;6.10;;;;;;;;;;5021376;28;20051;-69
2023/06/18 12:27:07;;;;;;;10.85;6.93;;;;;;;;;;5030011;28;20191;-69
2023/06/18 12:29:40;;;;;;;9.50;6.37;;;;;;;;;;5020369;28;20075;-69
2023/06/18 12:32:08;;;;;;;10.15;6.40;;;;;;;;;;5018171;28;20037;-66
2023/06/18 12:34:36;;;;;;;9.90;6.45;;;;;;;;;;5025830;28;20541;-66
2023/06/18 12:37:04;;;;;;;8.80;6.30;;;;;;;;;;5009241;28;20495;-66
2023/06/18 12:39:32;;;;;;;8.60;6.25;;;;;;;;;;5027333;28;20148;-65
2023/06/18 12:42:08;;;;;;;9.57;6.33;;;;;;;;;;5008673;28;20033;-68
2023/06/18 12:44:36;;;;;;;9.80;6.65;;;;;;;;;;5026401;28;20059;-67
2023/06/18 12:47:05;;;;;;;10.95;5.65;;;;;;;;;;5019049;28;20613;-66
2023/06/18 12:49:37;;;;;;;10.48;7.07;;;;;;;;;;5010236;28;20055;-64
2023/06/18 12:52:14;;;;;;;11.05;7.20;;;;;;;;;;5002710;28;20040;-66
2023/06/18 12:54:41;;;;;;;11.97;6.57;;;;;;;;;;5004473;28;20261;-65
2023/06/18 12:57:13;;;;;;;9.68;5.80;;;;;;;;;;5014261;28;20033;-66
2023/06/18 12:59:48;;;;;;;10.90;6.40;;;;;;;;;;5016371;28;20051;-66
2023/06/18 13:02:16;;;;;;;9.50;6.35;;;;;;;;;;5016365;28;20035;-67
2023/06/18 13:04:47;;;;;;;12.38;7.07;;;;;;;;;;5015576;28;20037;-67
2023/06/18 13:07:15;;;;;;;8.63;5.97;;;;;;;;;;5016956;28;20044;-67
2023/06/18 13:09:42;;;;;;;8.82;6.15;;;;;;;;;;5001933;28;20052;-68
2023/06/18 13:12:12;;;;;;;11.05;6.60;;;;;;;;;;5027146;28;20033;-67
2023/06/18 13:14:41;;;;;;;9.77;6.55;;;;;;;;;;5018053;28;20044;-68
2023/06/18 13:17:09;;;;;;;10.52;6.68;;;;;;;;;;5026373;28;20045;-68
2023/06/18 13:19:37;;;;;;;10.10;5.60;;;;;;;;;;5013331;28;20025;-69
2023/06/18 13:22:25;;;;;;;9.95;6.72;;;;;;;;;;5000240;28;20984;-68
2023/06/18 13:24:56;;;;;;;10.82;7.43;;;;;;;;;;5024625;28;20059;-67
2023/06/18 13:27:26;;;;;;;9.43;6.88;;;;;;;;;;5009530;28;20041;-68
2023/06/18 13:29:55;;;;;;;11.18;6.82;;;;;;;;;;5023912;28;20037;-67
2023/06/18 13:32:23;;;;;;;10.13;6.10;;;;;;;;;;5007714;28;20033;-68
2023/06/18 13:34:51;;;;;;;11.18;6.97;;;;;;;;;;5022251;28;20037;-67
2023/06/18 13:37:19;;;;;;;10.95;6.30;;;;;;;;;;5010632;28;20041;-68
2023/06/18 13:39:47;;;;;;;9.95;6.88;;;;;;;;;;5020501;28;20053;-68
2023/06/18 13:42:18;;;;;;;10.00;6.43;;;;;;;;;;5016659;28;20407;-68
2023/06/18 13:44:48;;;;;;;8.70;6.13;;;;;;;;;;5017255;28;20060;-68
2023/06/18 13:47:15;;;;;;;11.10;7.53;;;;;;;;;;5012924;28;20133;-68
2023/06/18 13:49:43;;;;;;;10.05;5.72;;;;;;;;;;5027590;28;20116;-68
2023/06/18 13:52:12;;;;;;;12.77;5.88;;;;;;;;;;4998859;28;20044;-68
2023/06/18 13:54:40;;;;;;;9.90;6.18;;;;;;;;;;5013196;28;20651;-68
2023/06/18 13:57:07;;;;;;;12.70;7.43;;;;;;;;;;5016227;28;20052;-68
2023/06/18 13:59:35;;;;;;;10.15;6.85;;;;;;;;;;5021620;28;20048;-68
2023/06/18 14:02:05;;;;;;;10.60;6.43;;;;;;;;;;5011048;28;20707;-69
2023/06/18 14:04:35;;;;;;;11.15;7.68;;;;;;;;;;5025761;28;20045;-67
2023/06/18 14:07:04;;;;;;;9.98;7.07;;;;;;;;;;5017418;28;20071;-69
2023/06/18 14:09:31;;;;;;;12.93;6.77;;;;;;;;;;4994007;28;20041;-69
2023/06/18 14:11:59;;;;;;;14.88;8.23;;;;;;;;;;5016759;28;20521;-69
2023/06/18 14:14:40;;;;;;;10.82;7.45;;;;;;;;;;4987374;28;20049;-69
2023/06/18 14:17:10;;;;;;;11.40;7.20;;;;;;;;;;5014639;28;20486;-63
2023/06/18 14:19:38;;;;;;;9.93;7.00;;;;;;;;;;5016820;28;20049;-64
2023/06/18 14:22:08;;;;;;;9.87;6.00;;;;;;;;;;5007569;28;20059;-63
2023/06/18 14:24:35;;;;;;;12.23;6.40;;;;;;;;;;5026087;28;20045;-63
2023/06/18 14:27:04;;;;;;;9.90;6.72;;;;;;;;;;5023827;28;20064;-63
2023/06/18 14:29:33;;;;;;;12.13;6.80;;;;;;;;;;5010555;28;20051;-63
2023/06/18 14:32:01;;;;;;;9.93;7.05;;;;;;;;;;5015706;28;20045;-63
2023/06/18 14:34:30;;;;;;;12.43;6.90;;;;;;;;;;5015938;28;20567;-67